Basco, Philippines
Current Conditions -  °F | °C
As of 12:00 AM on Tuesday 27 Jan 2015 (Local Time) from RCKH Reporting Station
Haze Haze  
Wind Chill: 68°   Ceiling: 5000
Heat Index: 68°   Visibility: 2mi
Dew Point: 63°   Wind: 6mph
Humidity: 83%   Direction: 340°NNW
Pressure: 30"   Gusts: NA
Location:  20.45°N, 121.97°E
Report Text: RCKH 261600Z 34005KT 310V030 3200 BR FEW013 BKN050 BKN07020/17 Q1016 NOSIG RMK A3003
Loading
Personal Weather Stations






























Interactive Weather Map New forecast layout! Learn more

10-Day Weather Forecast

Advertisements
Track Severe Weather on mobile